Gadsden, South Carolina
Current Conditions -  °F | °C
As of 4:58 AM on Saturday 25 Oct 2014 (Local Time) from KMMT Reporting Station
Clear Clear  
Wind Chill: 41°   Ceiling: Unl
Heat Index: 41°   Visibility: 8mi
Dew Point: 41°   Wind: 1mph
Humidity: 99%   Direction: 330°NNW
Pressure: 30"   Gusts: NA
Location:  33.85°N, 80.77°W
Report Text: KMMT 250858Z AUTO 33001KT 8SM CLR 05/05 A3000 RMK AO2 SLP161 T00510050 58001
Loading
Personal Weather Stations






























Interactive Weather Map
Tropical Storm Tracking
New forecast layout! Learn more

10-Day Weather Forecast

Advertisements
Track Severe Weather on mobile